createdAt,value
2022-12-18T00:00:02.513Z,60.00
2022-12-18T00:02:30.402Z,60.10
2022-12-18T00:04:58.375Z,60.10
2022-12-18T00:07:28.919Z,60.00
2022-12-18T00:09:56.793Z,60.10
2022-12-18T00:12:24.675Z,60.00
2022-12-18T00:14:52.569Z,60.00
2022-12-18T00:17:20.459Z,59.80
2022-12-18T00:19:48.337Z,60.00
2022-12-18T00:22:16.210Z,59.90
2022-12-18T00:24:45.381Z,60.00
2022-12-18T00:27:13.455Z,60.00
2022-12-18T00:29:44.175Z,59.90
2022-12-18T00:32:12.083Z,60.00
2022-12-18T00:34:39.964Z,59.80
2022-12-18T00:37:07.845Z,59.60
2022-12-18T00:39:35.871Z,59.70
2022-12-18T00:42:22.625Z,59.60
2022-12-18T00:44:50.498Z,59.60
2022-12-18T00:47:18.825Z,59.60
2022-12-18T00:49:47.002Z,59.60
2022-12-18T00:52:14.837Z,59.50
2022-12-18T00:54:42.751Z,59.50
2022-12-18T00:57:11.931Z,59.40
2022-12-18T00:59:39.785Z,59.30
2022-12-18T01:02:07.767Z,59.70
2022-12-18T01:04:35.784Z,59.50
2022-12-18T01:07:03.677Z,59.50
2022-12-18T01:09:31.569Z,59.60
2022-12-18T01:11:59.435Z,59.40
2022-12-18T01:14:28.661Z,59.50
2022-12-18T01:16:56.524Z,59.20
2022-12-18T01:19:24.740Z,59.10
2022-12-18T01:21:52.629Z,59.10
2022-12-18T01:24:20.807Z,60.00
2022-12-18T01:26:48.662Z,58.80
2022-12-18T01:29:16.503Z,58.90
2022-12-18T01:31:45.761Z,59.00
2022-12-18T01:34:13.649Z,59.30
2022-12-18T01:36:43.196Z,59.00
2022-12-18T01:39:13.308Z,59.00
2022-12-18T01:42:00.751Z,58.90
2022-12-18T01:44:52.820Z,58.80
2022-12-18T01:47:24.209Z,59.00
2022-12-18T01:49:52.069Z,58.70
2022-12-18T01:52:20.115Z,58.50
2022-12-18T01:54:48.024Z,58.90
2022-12-18T01:57:15.930Z,58.70
2022-12-18T01:59:45.335Z,58.50
2022-12-18T02:02:13.550Z,58.70
2022-12-18T02:04:47.791Z,58.70
2022-12-18T02:07:22.094Z,58.70
2022-12-18T02:09:54.271Z,58.50
2022-12-18T02:12:23.032Z,58.60
2022-12-18T02:14:54.266Z,58.60
2022-12-18T02:17:23.153Z,58.50
2022-12-18T02:20:01.223Z,58.30
2022-12-18T02:22:35.698Z,58.10
2022-12-18T02:25:14.669Z,58.30
2022-12-18T02:27:44.132Z,58.10
2022-12-18T02:30:12.173Z,58.10
2022-12-18T02:32:41.672Z,58.10
2022-12-18T02:35:14.291Z,58.00
2022-12-18T02:37:42.804Z,57.90
2022-12-18T02:40:12.097Z,57.90
2022-12-18T02:42:40.137Z,58.00
2022-12-18T02:45:11.905Z,58.10
2022-12-18T02:47:41.147Z,58.10
2022-12-18T02:50:12.018Z,58.80
2022-12-18T02:52:44.066Z,59.40
2022-12-18T02:55:19.378Z,58.70
2022-12-18T02:57:53.423Z,58.40
2022-12-18T03:00:28.622Z,58.30
2022-12-18T03:02:59.884Z,58.10
2022-12-18T03:05:31.846Z,58.10
2022-12-18T03:08:00.654Z,58.10
2022-12-18T03:10:33.119Z,57.90
2022-12-18T03:13:04.170Z,57.90
2022-12-18T03:15:36.801Z,57.70
2022-12-18T03:18:12.554Z,57.70
2022-12-18T03:20:40.535Z,57.60
2022-12-18T03:23:11.338Z,57.70
2022-12-18T03:25:40.804Z,57.60
2022-12-18T03:28:09.474Z,57.50
2022-12-18T03:30:39.463Z,57.50
2022-12-18T03:33:09.565Z,57.40
2022-12-18T03:35:41.928Z,57.30
2022-12-18T03:38:09.948Z,57.30
2022-12-18T03:40:47.639Z,57.00
2022-12-18T03:43:20.705Z,57.00
2022-12-18T03:45:54.143Z,56.90
2022-12-18T03:48:25.541Z,57.00
2022-12-18T03:50:57.578Z,57.00
2022-12-18T03:53:33.668Z,56.90
2022-12-18T03:56:01.709Z,57.00
2022-12-18T03:58:34.930Z,57.20
2022-12-18T04:01:17.266Z,57.00
2022-12-18T04:03:45.924Z,56.70
2022-12-18T04:06:14.289Z,56.60
2022-12-18T04:08:43.620Z,56.60
2022-12-18T04:11:14.709Z,56.40
2022-12-18T04:13:44.091Z,56.40
2022-12-18T04:16:20.797Z,56.30
2022-12-18T04:18:52.544Z,56.20
2022-12-18T04:21:21.798Z,56.30
2022-12-18T04:23:50.599Z,56.20
2022-12-18T04:26:21.273Z,57.00
2022-12-18T04:29:00.185Z,56.30
2022-12-18T04:31:30.657Z,56.00
2022-12-18T04:33:58.591Z,56.10
2022-12-18T04:36:26.802Z,56.10
2022-12-18T04:38:55.268Z,55.90
2022-12-18T04:41:23.421Z,56.00
2022-12-18T04:43:53.660Z,55.80
2022-12-18T04:46:21.561Z,55.90
2022-12-18T04:48:50.798Z,55.70
2022-12-18T04:51:23.299Z,55.70
2022-12-18T04:53:54.106Z,55.80
2022-12-18T04:56:22.042Z,55.60
2022-12-18T04:58:49.941Z,55.60
2022-12-18T05:01:19.031Z,55.40
2022-12-18T05:03:47.125Z,55.60
2022-12-18T05:06:16.425Z,55.40
2022-12-18T05:08:44.257Z,55.40
2022-12-18T05:11:15.014Z,55.40
2022-12-18T05:13:43.445Z,55.40
2022-12-18T05:16:11.524Z,55.20
2022-12-18T05:18:39.520Z,55.20
2022-12-18T05:21:07.643Z,55.50
2022-12-18T05:23:40.033Z,55.40
2022-12-18T05:26:08.800Z,55.30
2022-12-18T05:28:37.139Z,55.20
2022-12-18T05:31:05.703Z,55.30
2022-12-18T05:33:34.455Z,55.30
2022-12-18T05:36:06.484Z,55.00
2022-12-18T05:38:35.436Z,55.10
2022-12-18T05:41:04.749Z,55.00
2022-12-18T05:43:32.741Z,54.70
2022-12-18T05:46:03.877Z,54.60
2022-12-18T05:48:31.754Z,54.60
2022-12-18T05:51:05.542Z,54.70
2022-12-18T05:53:33.393Z,54.80
2022-12-18T05:56:03.805Z,54.70
2022-12-18T05:58:31.714Z,54.80
2022-12-18T06:00:59.750Z,54.40
2022-12-18T06:03:33.581Z,54.30
2022-12-18T06:06:01.805Z,54.60
2022-12-18T06:08:29.668Z,54.70
2022-12-18T06:10:57.577Z,54.40
2022-12-18T06:13:26.846Z,54.30
2022-12-18T06:15:54.887Z,54.40
2022-12-18T06:18:22.968Z,54.10
2022-12-18T06:20:57.201Z,54.20
2022-12-18T06:23:25.308Z,54.00
2022-12-18T06:25:53.288Z,53.90
2022-12-18T06:28:21.195Z,54.10
2022-12-18T06:30:50.765Z,54.00
2022-12-18T06:33:18.765Z,54.30
2022-12-18T06:35:46.762Z,54.00
2022-12-18T06:38:14.686Z,53.80
2022-12-18T06:40:42.558Z,53.80
2022-12-18T06:43:10.442Z,53.80
2022-12-18T06:45:38.419Z,53.90
2022-12-18T06:48:07.946Z,53.80
2022-12-18T06:50:35.921Z,53.70
2022-12-18T06:53:03.811Z,53.70
2022-12-18T06:55:32.040Z,53.70
2022-12-18T06:58:00.032Z,53.60
2022-12-18T07:00:27.869Z,53.50
2022-12-18T07:02:55.830Z,53.40
2022-12-18T07:05:25.151Z,53.50
2022-12-18T07:07:53.220Z,53.30
2022-12-18T07:10:21.107Z,53.50
2022-12-18T07:12:48.986Z,53.40
2022-12-18T07:15:17.003Z,53.40
2022-12-18T07:17:44.835Z,53.40
2022-12-18T07:20:13.029Z,53.40
2022-12-18T07:22:42.252Z,53.30
2022-12-18T07:25:10.273Z,53.10
2022-12-18T07:27:38.132Z,53.40
2022-12-18T07:30:07.499Z,53.20
2022-12-18T07:32:35.429Z,53.30
2022-12-18T07:35:03.336Z,53.10
2022-12-18T07:37:31.184Z,53.20
2022-12-18T07:40:00.598Z,53.30
2022-12-18T07:42:34.287Z,53.20
2022-12-18T07:45:02.275Z,53.10
2022-12-18T07:47:30.234Z,52.90
2022-12-18T07:49:58.883Z,53.10
2022-12-18T07:52:27.497Z,53.20
2022-12-18T07:54:55.394Z,53.00
2022-12-18T07:57:49.406Z,53.10
2022-12-18T08:00:13.914Z,53.80
2022-12-18T08:02:42.267Z,53.00
2022-12-18T08:05:10.951Z,52.90
2022-12-18T08:07:38.861Z,53.00
2022-12-18T08:10:07.735Z,53.00
2022-12-18T08:12:36.978Z,53.10
2022-12-18T08:15:05.270Z,53.10
2022-12-18T08:17:34.203Z,53.20
2022-12-18T08:20:02.603Z,53.30
2022-12-18T08:22:30.491Z,53.10
2022-12-18T08:24:58.347Z,53.50
2022-12-18T08:27:30.137Z,53.00
2022-12-18T08:29:59.784Z,53.10
2022-12-18T08:32:27.910Z,53.30
2022-12-18T08:34:55.878Z,53.10
2022-12-18T08:37:23.837Z,53.70
2022-12-18T08:39:51.769Z,54.80
2022-12-18T08:42:37.127Z,53.50
2022-12-18T08:45:07.229Z,53.60
2022-12-18T08:47:35.178Z,53.70
2022-12-18T08:50:03.108Z,53.80
2022-12-18T08:52:30.990Z,54.90
2022-12-18T08:54:58.899Z,53.70
2022-12-18T08:57:26.806Z,54.10
2022-12-18T08:59:55.061Z,54.30
2022-12-18T09:02:24.367Z,54.10
2022-12-18T09:04:57.153Z,53.70
2022-12-18T09:07:25.543Z,53.40
2022-12-18T09:09:53.410Z,53.70
2022-12-18T09:12:21.338Z,54.10
2022-12-18T09:14:49.155Z,54.20
2022-12-18T09:17:17.120Z,54.10
2022-12-18T09:19:46.459Z,53.50
2022-12-18T09:22:14.421Z,53.40
2022-12-18T09:24:42.250Z,53.50
2022-12-18T09:27:10.187Z,53.40
2022-12-18T09:29:38.047Z,53.20
2022-12-18T09:32:06.544Z,53.40
2022-12-18T09:34:34.767Z,53.40
2022-12-18T09:37:03.945Z,53.30
2022-12-18T09:39:31.859Z,53.30
2022-12-18T09:42:00.024Z,53.40
2022-12-18T09:44:29.170Z,53.30
2022-12-18T09:47:07.249Z,53.40
2022-12-18T09:49:37.312Z,53.40
2022-12-18T09:52:11.450Z,53.40
2022-12-18T09:54:41.460Z,53.40
2022-12-18T09:57:13.334Z,53.40
2022-12-18T09:59:41.585Z,53.40
2022-12-18T10:02:19.083Z,53.80
2022-12-18T10:04:47.813Z,54.20
2022-12-18T10:07:19.051Z,54.20
2022-12-18T10:09:50.019Z,54.00
2022-12-18T10:12:21.726Z,54.00
2022-12-18T10:14:52.258Z,54.10
2022-12-18T10:17:24.504Z,54.10
2022-12-18T10:19:54.933Z,53.80
2022-12-18T10:22:40.878Z,53.90
2022-12-18T10:25:17.461Z,54.00
2022-12-18T10:27:45.340Z,53.90
2022-12-18T10:30:15.632Z,54.00
2022-12-18T10:32:43.775Z,54.10
2022-12-18T10:35:17.073Z,53.90
2022-12-18T10:38:04.876Z,54.10
2022-12-18T10:40:32.865Z,54.00
2022-12-18T10:43:07.210Z,54.10
2022-12-18T10:45:36.008Z,54.60
2022-12-18T10:48:03.857Z,54.40
2022-12-18T10:51:08.731Z,54.40
2022-12-18T10:53:22.553Z,54.50
2022-12-18T10:55:50.473Z,54.60
2022-12-18T10:58:26.337Z,55.00
2022-12-18T11:01:08.380Z,54.80
2022-12-18T11:03:37.657Z,55.90
2022-12-18T11:06:07.495Z,58.10
2022-12-18T11:08:36.950Z,59.70
2022-12-18T11:11:05.114Z,61.10
2022-12-18T11:13:33.002Z,61.30
2022-12-18T11:16:01.199Z,61.60
2022-12-18T11:18:30.552Z,61.10
2022-12-18T11:20:59.661Z,61.40
2022-12-18T11:23:27.629Z,61.70
2022-12-18T11:25:58.867Z,61.60
2022-12-18T11:28:35.628Z,61.20
2022-12-18T11:31:24.625Z,60.90
2022-12-18T11:34:26.998Z,60.70
2022-12-18T11:36:46.095Z,60.60
2022-12-18T11:39:16.982Z,60.40
2022-12-18T11:42:07.004Z,60.20
2022-12-18T11:44:37.976Z,60.10
2022-12-18T11:47:09.408Z,59.70
2022-12-18T11:49:40.123Z,59.70
2022-12-18T11:52:12.342Z,59.70
2022-12-18T11:54:40.235Z,59.60
2022-12-18T11:57:12.304Z,59.40
2022-12-18T11:59:43.426Z,59.30
2022-12-18T12:02:22.525Z,59.50
2022-12-18T12:04:58.938Z,59.80
2022-12-18T12:07:33.971Z,60.10
2022-12-18T12:10:06.942Z,62.10
2022-12-18T12:12:49.082Z,62.10
2022-12-18T12:15:23.056Z,63.70
2022-12-18T12:17:53.175Z,63.20
2022-12-18T12:20:22.582Z,63.40
2022-12-18T12:22:54.081Z,63.60
2022-12-18T12:25:28.822Z,63.90
2022-12-18T12:28:04.098Z,63.90
2022-12-18T12:30:34.790Z,64.40
2022-12-18T12:33:11.199Z,65.20
2022-12-18T12:35:46.501Z,63.90
2022-12-18T12:38:16.906Z,63.80
2022-12-18T12:40:53.809Z,63.80
2022-12-18T12:43:34.524Z,64.00
2022-12-18T12:46:05.225Z,63.80
2022-12-18T12:48:42.893Z,63.90
2022-12-18T12:51:15.676Z,64.20
2022-12-18T12:53:43.961Z,64.50
2022-12-18T12:56:13.121Z,64.60
2022-12-18T12:58:47.598Z,64.60
2022-12-18T13:01:23.408Z,64.50
2022-12-18T13:03:57.444Z,64.70
2022-12-18T13:06:31.427Z,65.00
2022-12-18T13:09:00.051Z,65.50
2022-12-18T13:11:59.510Z,65.40
2022-12-18T13:14:33.899Z,65.30
2022-12-18T13:17:31.790Z,65.20
2022-12-18T13:20:14.482Z,65.40
2022-12-18T13:22:46.318Z,65.80
2022-12-18T13:25:31.085Z,65.90
2022-12-18T13:28:07.205Z,67.00
2022-12-18T13:30:51.741Z,66.10
2022-12-18T13:36:40.134Z,67.10
2022-12-18T13:39:28.908Z,65.40
2022-12-18T13:42:57.432Z,65.70
2022-12-18T13:45:49.569Z,65.60
2022-12-18T13:48:25.057Z,65.70
2022-12-18T13:50:59.412Z,65.70
2022-12-18T13:53:29.733Z,65.70
2022-12-18T13:55:57.986Z,65.80
2022-12-18T13:58:26.257Z,65.70
2022-12-18T14:00:55.623Z,65.60
2022-12-18T14:03:24.824Z,65.60
2022-12-18T14:06:02.016Z,65.50
2022-12-18T14:08:34.680Z,65.50
2022-12-18T14:11:02.597Z,66.50
2022-12-18T14:13:32.445Z,65.30
2022-12-18T14:16:03.992Z,65.00
2022-12-18T14:18:35.578Z,64.80
2022-12-18T14:21:04.419Z,64.90
2022-12-18T14:23:34.671Z,64.90
2022-12-18T14:26:05.978Z,65.00
2022-12-18T14:28:34.272Z,64.90
2022-12-18T14:31:03.522Z,64.90
2022-12-18T14:33:31.398Z,64.90
2022-12-18T14:36:01.401Z,64.80
2022-12-18T14:38:30.863Z,64.90
2022-12-18T14:40:59.384Z,64.80
2022-12-18T14:43:27.824Z,64.80
2022-12-18T14:45:55.748Z,64.80
2022-12-18T14:48:33.486Z,64.60
2022-12-18T14:51:03.320Z,64.70
2022-12-18T14:53:36.485Z,64.50
2022-12-18T14:56:05.051Z,64.20
2022-12-18T14:58:33.273Z,64.30
2022-12-18T15:01:01.531Z,64.10
2022-12-18T15:03:30.932Z,63.90
2022-12-18T15:05:58.826Z,64.10
2022-12-18T15:08:32.513Z,64.20
2022-12-18T15:11:00.846Z,64.20
2022-12-18T15:13:29.468Z,64.10
2022-12-18T15:15:57.683Z,63.90
2022-12-18T15:18:29.597Z,63.70
2022-12-18T15:21:00.015Z,63.70
2022-12-18T15:23:29.616Z,63.60
2022-12-18T15:25:57.938Z,63.50
2022-12-18T15:28:26.819Z,63.40
2022-12-18T15:31:06.443Z,63.30
2022-12-18T15:33:35.633Z,63.20
2022-12-18T15:36:06.151Z,63.30
2022-12-18T15:38:34.015Z,63.10
2022-12-18T15:41:01.903Z,63.10
2022-12-18T15:43:34.926Z,63.10
2022-12-18T15:46:03.862Z,63.00
2022-12-18T15:48:31.884Z,63.00
2022-12-18T15:50:59.797Z,63.00
2022-12-18T15:53:31.190Z,63.10
2022-12-18T15:56:17.465Z,63.10
2022-12-18T15:58:46.068Z,63.10
2022-12-18T16:01:13.975Z,63.00
2022-12-18T16:03:42.213Z,63.10
2022-12-18T16:06:10.799Z,63.20
2022-12-18T16:08:40.015Z,63.10
2022-12-18T16:11:12.719Z,63.10
2022-12-18T16:13:40.929Z,63.00
2022-12-18T16:16:10.106Z,63.00
2022-12-18T16:18:38.046Z,63.00
2022-12-18T16:21:06.167Z,63.00
2022-12-18T16:23:34.078Z,63.00
2022-12-18T16:26:03.622Z,62.90
2022-12-18T16:28:31.515Z,62.80
2022-12-18T16:30:59.472Z,62.70
2022-12-18T16:33:27.337Z,62.70
2022-12-18T16:35:55.758Z,62.60
2022-12-18T16:38:23.708Z,62.50
2022-12-18T16:41:10.398Z,62.40
2022-12-18T16:43:40.025Z,62.40
2022-12-18T16:46:08.160Z,62.30
2022-12-18T16:48:36.169Z,62.30
2022-12-18T16:51:04.738Z,62.20
2022-12-18T16:53:34.192Z,62.10
2022-12-18T16:56:02.958Z,61.90
2022-12-18T16:58:32.400Z,61.80
2022-12-18T17:01:01.845Z,61.80
2022-12-18T17:03:29.856Z,61.80
2022-12-18T17:05:57.703Z,61.80
2022-12-18T17:08:26.178Z,61.60
2022-12-18T17:10:54.015Z,61.50
2022-12-18T17:13:25.698Z,61.50
2022-12-18T17:15:54.455Z,61.40
2022-12-18T17:18:23.893Z,61.40
2022-12-18T17:20:52.005Z,61.30
2022-12-18T17:23:20.186Z,61.20
2022-12-18T17:25:48.662Z,61.10
2022-12-18T17:28:16.553Z,61.20
2022-12-18T17:30:44.387Z,61.00
2022-12-18T17:33:13.011Z,60.90
2022-12-18T17:35:44.065Z,60.80
2022-12-18T17:38:12.900Z,60.90
2022-12-18T17:40:46.121Z,60.70
2022-12-18T17:43:14.398Z,60.70
2022-12-18T17:45:42.374Z,60.60
2022-12-18T17:48:10.287Z,61.50
2022-12-18T17:50:38.235Z,60.50
2022-12-18T17:53:07.434Z,60.60
2022-12-18T17:55:35.422Z,60.50
2022-12-18T17:58:03.358Z,60.50
2022-12-18T18:00:31.276Z,60.50
2022-12-18T18:02:59.345Z,60.50
2022-12-18T18:05:27.402Z,60.40
2022-12-18T18:07:55.271Z,60.50
2022-12-18T18:10:24.515Z,60.80
2022-12-18T18:13:09.903Z,60.80
2022-12-18T18:15:39.518Z,61.30
2022-12-18T18:18:08.629Z,61.30
2022-12-18T18:20:40.798Z,61.20
2022-12-18T18:23:10.366Z,60.90
2022-12-18T18:25:39.596Z,60.70
2022-12-18T18:28:07.946Z,60.50
2022-12-18T18:30:37.560Z,60.40
2022-12-18T18:33:10.413Z,60.30
2022-12-18T18:35:58.606Z,60.20
2022-12-18T18:38:26.496Z,60.10
2022-12-18T18:41:00.519Z,60.00
2022-12-18T18:43:28.430Z,60.00
2022-12-18T18:45:57.107Z,60.00
2022-12-18T18:48:25.118Z,60.10
2022-12-18T18:50:57.698Z,60.10
2022-12-18T18:53:25.563Z,60.10
2022-12-18T18:56:26.153Z,60.00
2022-12-18T18:58:42.702Z,59.80
2022-12-18T19:01:12.179Z,59.80
2022-12-18T19:03:40.621Z,59.80
2022-12-18T19:06:09.450Z,59.90
2022-12-18T19:08:38.327Z,59.60
2022-12-18T19:11:31.787Z,59.80
2022-12-18T19:14:05.332Z,59.70
2022-12-18T19:16:34.339Z,59.80
2022-12-18T19:19:02.674Z,59.90
2022-12-18T19:21:34.201Z,59.90
2022-12-18T19:24:02.934Z,60.40
2022-12-18T19:26:30.970Z,60.50
2022-12-18T19:29:02.159Z,60.70
2022-12-18T19:31:35.689Z,61.10
2022-12-18T19:34:04.908Z,61.00
2022-12-18T19:36:33.331Z,61.20
2022-12-18T19:39:02.087Z,61.50
2022-12-18T19:41:31.292Z,61.50
2022-12-18T19:44:01.101Z,61.60
2022-12-18T19:46:38.327Z,61.50
2022-12-18T19:49:10.029Z,61.60
2022-12-18T19:51:37.941Z,61.70
2022-12-18T19:54:13.268Z,61.60
2022-12-18T19:56:44.971Z,61.60
2022-12-18T19:59:12.858Z,61.60
2022-12-18T20:01:42.236Z,61.70
2022-12-18T20:04:10.232Z,61.80
2022-12-18T20:06:46.581Z,61.90
2022-12-18T20:09:14.726Z,61.90
2022-12-18T20:11:42.888Z,61.90
2022-12-18T20:14:10.863Z,62.00
2022-12-18T20:16:38.825Z,61.90
2022-12-18T20:19:08.513Z,61.90
2022-12-18T20:21:37.080Z,61.90
2022-12-18T20:24:06.886Z,62.00
2022-12-18T20:26:34.816Z,62.40
2022-12-18T20:29:02.675Z,62.20
2022-12-18T20:31:30.605Z,62.10
2022-12-18T20:34:01.726Z,61.90
2022-12-18T20:36:34.244Z,61.90
2022-12-18T20:39:05.270Z,61.90
2022-12-18T20:41:37.973Z,62.00
2022-12-18T20:44:14.027Z,62.30
2022-12-18T20:46:52.837Z,62.50
2022-12-18T20:49:20.722Z,62.40
2022-12-18T20:51:52.453Z,62.50
2022-12-18T20:54:20.552Z,62.60
2022-12-18T20:56:48.411Z,62.40
2022-12-18T20:59:16.263Z,62.30
2022-12-18T21:01:47.541Z,63.50
2022-12-18T21:04:17.996Z,63.40
2022-12-18T21:06:52.099Z,64.00
2022-12-18T21:09:23.629Z,63.90
2022-12-18T21:12:11.117Z,64.40
2022-12-18T21:14:42.240Z,63.90
2022-12-18T21:17:10.141Z,64.60
2022-12-18T21:19:38.221Z,65.10
2022-12-18T21:22:06.488Z,64.60
2022-12-18T21:24:35.810Z,64.70
2022-12-18T21:27:03.652Z,64.40
2022-12-18T21:29:31.594Z,64.60
2022-12-18T21:31:59.480Z,64.90
2022-12-18T21:34:28.256Z,64.90
2022-12-18T21:36:56.369Z,64.90
2022-12-18T21:39:25.205Z,64.80
2022-12-18T21:42:12.043Z,64.80
2022-12-18T21:44:42.049Z,64.80
2022-12-18T21:47:21.820Z,64.50
2022-12-18T21:49:52.058Z,64.60
2022-12-18T21:52:20.061Z,64.50
2022-12-18T21:54:50.052Z,64.40
2022-12-18T21:57:19.611Z,64.40
2022-12-18T21:59:48.685Z,64.20
2022-12-18T22:02:18.428Z,64.10
2022-12-18T22:04:47.041Z,64.10
2022-12-18T22:07:15.396Z,64.10
2022-12-18T22:09:43.416Z,63.90
2022-12-18T22:12:11.854Z,64.00
2022-12-18T22:14:41.080Z,63.90
2022-12-18T22:17:11.036Z,64.10
2022-12-18T22:19:42.818Z,64.00
2022-12-18T22:22:11.214Z,63.80
2022-12-18T22:24:39.133Z,64.00
2022-12-18T22:27:07.010Z,64.90
2022-12-18T22:29:53.151Z,63.90
2022-12-18T22:32:30.716Z,64.70
2022-12-18T22:35:05.851Z,63.90
2022-12-18T22:37:36.123Z,63.80
2022-12-18T22:40:07.302Z,63.60
2022-12-18T22:42:35.535Z,63.60
2022-12-18T22:45:03.410Z,63.60
2022-12-18T22:47:32.736Z,63.60
2022-12-18T22:50:00.590Z,63.50
2022-12-18T22:52:28.484Z,63.40
2022-12-18T22:54:56.374Z,63.30
2022-12-18T22:57:24.371Z,63.20
2022-12-18T22:59:52.426Z,63.20
2022-12-18T23:02:20.522Z,63.10
2022-12-18T23:04:49.939Z,63.00
2022-12-18T23:07:17.837Z,62.80
2022-12-18T23:09:45.883Z,62.90
2022-12-18T23:12:16.640Z,62.70
2022-12-18T23:14:44.589Z,62.80
2022-12-18T23:17:12.476Z,62.80
2022-12-18T23:19:45.527Z,63.10
2022-12-18T23:22:17.988Z,63.10
2022-12-18T23:24:45.879Z,63.10
2022-12-18T23:27:13.775Z,63.10
2022-12-18T23:29:41.703Z,62.80
2022-12-18T23:32:09.579Z,62.70
2022-12-18T23:34:37.492Z,62.80
2022-12-18T23:37:05.361Z,62.70
2022-12-18T23:39:34.600Z,62.70
2022-12-18T23:42:02.513Z,62.30
2022-12-18T23:44:30.376Z,62.20
2022-12-18T23:46:58.443Z,62.20
2022-12-18T23:49:26.292Z,62.00
2022-12-18T23:51:55.037Z,61.90
2022-12-18T23:54:32.738Z,61.90
2022-12-18T23:57:02.847Z,61.90
2022-12-18T23:59:30.726Z,61.70
